New Auburn, MN

7:55 PM CST on November 27, 2014 (GMT -0600)
Highland Lane | Change Station
CLOSE
Current Station
Personal Weather Station
Location: Arlington, MN
Elevation: 978 ft
Nearby Weather Stations

Elev 978 ft 44.62 °N, 94.07 °W | Updated 28 seconds ago

Mostly Cloudy
Mostly Cloudy
2.3 °F
Feels Like -4 °F
N
3.1
Wind Variable Wind from NW
Gusts 8.3 mph

Today
High -- | Low -- °F
--% Chance of Precip.
Yesterday
High -- | Low -- °F
Precip. -- in
7:29 AM 4:39 PM
Waxing Crescent, 35% visible
Pressure 30.31 in
Visibility 10.0 miles
Clouds Scattered Clouds 9000 ft
Windchill -4 °F
Dew Point -11 °F
Humidity 53%
Rainfall 0.00 in
Snow Depth Not available.
UV 0 out of 12
Pollen .10 out of 12
Air Quality Not available.
Flu Activity Not available.
METAR KGYL 280134Z AUTO 15005KT 10SM SCT090 M15/M19 A3031 RMK AO2 T11501188

More Conditions Fewer Conditions

Pressure 30.31 in
Visibility 10.0 miles
Clouds Scattered Clouds 9000 ft
Windchill -4 °F
Dew Point -11 °F
Humidity 53%
Rainfall 0.00 in
Snow Depth Not available.
UV 0 out of 12
Pollen .10 out of 12
Air Quality Not available.
Flu Activity Not available.
METAR KGYL 280134Z AUTO 15005KT 10SM SCT090 M15/M19 A3031 RMK AO2 T11501188

More Conditions Fewer Conditions

10-Day Weather Forecast

Almanac

Astronomy

Nov. 27, 2014 Rise Set
Actual Time
Civil Twilight
Nautical Twilight
Astronomical Twilight
Moon
Length of Visible Light
Length of Day
Tomorrow will be .
, % of the Moon is Illuminated

Today's Extremes

State Highs State Lows

Community

WunderPhotos

Upload Photos

1,774,151 photos uploaded!

WunderBlogs® & News

Nearby

Air Quality

  Air Quality AQ Index Pollutant
Not available.

Snow Depth

Station Depth Elevation

Earthquake Activity

City Distance Mag. Time & Date
Minimum magnitude displayed is 2.5.

Coastal Water Temperatures

Place Temperature

Nearby Weather Stations